Time;durP1;ratioP1;P1;durP2;ratioP2;P2;SDS_P1;SDS_P2;PMS_P1;PMS_P2;Temp;Humidity;BMP_temperature;BMP_pressure;BME280_temperature;BME280_humidity;BME280_pressure;Samples;Min_cycle;Max_cycle;Signal;HPM_P1;HPM_P2
2021/12/04 00:01:48;;;;;;;3.40;2.87;;;;;;;;;;5053471;28;20930;-72
2021/12/04 00:04:21;;;;;;;3.73;2.10;;;;;;;;;;5052153;28;20451;-71
2021/12/04 00:06:49;;;;;;;3.20;2.10;;;;;;;;;;5053389;28;20533;-72
2021/12/04 00:09:17;;;;;;;2.97;1.83;;;;;;;;;;5052474;28;20496;-72
2021/12/04 00:11:52;;;;;;;3.30;2.10;;;;;;;;;;5052838;28;20476;-72
2021/12/04 00:14:19;;;;;;;3.20;2.10;;;;;;;;;;5053045;28;20453;-72
2021/12/04 00:16:46;;;;;;;2.43;2.23;;;;;;;;;;5052937;28;20485;-72
2021/12/04 00:19:14;;;;;;;3.27;2.47;;;;;;;;;;5052453;28;20532;-72
2021/12/04 00:21:42;;;;;;;2.00;1.80;;;;;;;;;;5052759;28;20482;-72
2021/12/04 00:24:10;;;;;;;2.73;1.70;;;;;;;;;;5051990;28;20525;-72
2021/12/04 00:26:37;;;;;;;2.20;2.00;;;;;;;;;;5052854;28;20645;-72
2021/12/04 00:29:05;;;;;;;2.77;2.10;;;;;;;;;;5052289;28;20453;-72
2021/12/04 00:31:32;;;;;;;1.67;1.57;;;;;;;;;;5052153;28;20460;-72
2021/12/04 00:34:00;;;;;;;2.83;2.10;;;;;;;;;;5051619;28;20454;-72
2021/12/04 00:36:33;;;;;;;3.27;2.37;;;;;;;;;;5052254;28;20558;-72
2021/12/04 00:50:12;;;;;;;2.20;1.83;;;;;;;;;;5071665;28;20651;-72
2021/12/04 00:52:39;;;;;;;4.73;2.40;;;;;;;;;;5071872;28;20787;-72
2021/12/04 00:55:09;;;;;;;2.40;1.70;;;;;;;;;;5071716;28;20529;-71
2021/12/04 00:57:38;;;;;;;2.40;1.70;;;;;;;;;;5071929;28;20524;-72
2021/12/04 01:00:06;;;;;;;5.27;1.97;;;;;;;;;;5071322;28;20477;-72
2021/12/04 01:02:33;;;;;;;2.33;1.90;;;;;;;;;;5071796;28;20476;-71
2021/12/04 01:05:01;;;;;;;2.30;2.10;;;;;;;;;;5071235;28;20458;-73
2021/12/04 01:07:28;;;;;;;2.97;2.07;;;;;;;;;;5072031;28;20800;-73
2021/12/04 01:09:55;;;;;;;2.03;1.87;;;;;;;;;;5071453;28;20867;-73
2021/12/04 01:12:24;;;;;;;3.50;1.97;;;;;;;;;;5071419;28;20463;-71
2021/12/04 01:14:51;;;;;;;3.27;2.00;;;;;;;;;;5071522;28;20496;-74
2021/12/04 01:17:18;;;;;;;3.80;2.00;;;;;;;;;;5071904;28;20837;-74
2021/12/04 01:19:45;;;;;;;1.93;1.77;;;;;;;;;;5071404;28;20921;-74
2021/12/04 01:22:12;;;;;;;2.23;1.80;;;;;;;;;;5071138;28;20825;-73
2021/12/04 01:24:39;;;;;;;2.50;1.90;;;;;;;;;;5071364;28;20801;-73
2021/12/04 01:27:08;;;;;;;2.40;1.87;;;;;;;;;;5070733;28;20529;-73
2021/12/04 01:29:36;;;;;;;2.53;2.10;;;;;;;;;;5071341;28;20450;-74
2021/12/04 01:32:07;;;;;;;3.40;2.27;;;;;;;;;;5071042;28;20524;-73
2021/12/04 01:34:34;;;;;;;3.60;2.10;;;;;;;;;;5070984;28;20964;-74
2021/12/04 01:37:02;;;;;;;3.07;2.40;;;;;;;;;;5071000;28;20507;-73
2021/12/04 01:39:29;;;;;;;2.57;2.20;;;;;;;;;;5071230;28;20537;-74
2021/12/04 01:41:56;;;;;;;4.03;2.27;;;;;;;;;;5070856;28;20782;-73
2021/12/04 01:44:23;;;;;;;2.63;2.10;;;;;;;;;;5056688;28;20548;-73
2021/12/04 01:46:55;;;;;;;3.50;2.20;;;;;;;;;;5070488;28;20464;-71
2021/12/04 01:49:23;;;;;;;2.53;1.90;;;;;;;;;;5071401;28;20873;-69
2021/12/04 01:51:50;;;;;;;2.70;1.97;;;;;;;;;;5071120;28;20452;-71
2021/12/04 01:54:17;;;;;;;5.33;2.77;;;;;;;;;;5070052;28;20917;-70
2021/12/04 01:56:44;;;;;;;3.10;2.40;;;;;;;;;;5071125;28;20512;-70
2021/12/04 01:59:12;;;;;;;3.83;2.30;;;;;;;;;;5070202;28;20451;-70
2021/12/04 02:01:39;;;;;;;3.30;3.00;;;;;;;;;;5071082;28;20452;-70
2021/12/04 02:04:07;;;;;;;2.90;2.27;;;;;;;;;;5070091;28;20545;-70
2021/12/04 02:06:35;;;;;;;3.97;2.30;;;;;;;;;;5070751;28;20456;-70
2021/12/04 02:09:02;;;;;;;2.87;2.40;;;;;;;;;;5070256;28;20441;-70
2021/12/04 02:11:29;;;;;;;1.57;1.47;;;;;;;;;;5070691;28;20442;-70
2021/12/04 02:13:56;;;;;;;2.10;1.93;;;;;;;;;;5069987;28;20457;-70
2021/12/04 02:16:24;;;;;;;2.50;2.20;;;;;;;;;;5073452;28;20491;-70
2021/12/04 02:18:52;;;;;;;2.40;2.20;;;;;;;;;;5087539;28;20469;-70
2021/12/04 02:21:20;;;;;;;2.57;2.07;;;;;;;;;;5092973;28;20677;-68
2021/12/04 02:23:48;;;;;;;3.63;2.50;;;;;;;;;;5080683;28;20528;-71
2021/12/04 02:26:15;;;;;;;4.70;2.10;;;;;;;;;;5070439;28;20992;-72
2021/12/04 02:28:43;;;;;;;3.40;2.23;;;;;;;;;;5071001;28;20948;-71
2021/12/04 02:31:11;;;;;;;4.30;2.50;;;;;;;;;;5069799;28;20450;-72
2021/12/04 02:33:38;;;;;;;2.80;2.30;;;;;;;;;;5070716;28;20450;-71
2021/12/04 02:36:07;;;;;;;3.53;1.90;;;;;;;;;;5069843;28;20567;-72
2021/12/04 02:38:35;;;;;;;3.03;2.30;;;;;;;;;;5070706;28;20806;-71
2021/12/04 02:41:03;;;;;;;3.57;2.13;;;;;;;;;;5070382;28;20450;-71
2021/12/04 02:43:33;;;;;;;3.40;2.10;;;;;;;;;;5058947;28;20965;-71
2021/12/04 02:46:00;;;;;;;4.10;2.50;;;;;;;;;;5068133;28;20544;-72
2021/12/04 02:48:27;;;;;;;2.63;2.43;;;;;;;;;;5070773;28;20809;-72
2021/12/04 02:50:55;;;;;;;3.90;3.07;;;;;;;;;;5070207;28;20532;-71
2021/12/04 02:53:22;;;;;;;3.17;2.27;;;;;;;;;;5070366;28;20937;-72
2021/12/04 02:55:53;;;;;;;3.30;2.60;;;;;;;;;;5071417;28;20537;-72
2021/12/04 02:58:20;;;;;;;4.90;3.10;;;;;;;;;;5074634;28;20877;-72
2021/12/04 03:00:50;;;;;;;4.00;3.07;;;;;;;;;;5074462;28;20534;-71
2021/12/04 03:03:18;;;;;;;3.50;2.50;;;;;;;;;;5073155;28;20445;-71
2021/12/04 03:05:49;;;;;;;3.13;2.83;;;;;;;;;;5074137;28;20530;-72
2021/12/04 03:08:16;;;;;;;3.40;2.63;;;;;;;;;;5073352;28;20457;-71
2021/12/04 03:10:44;;;;;;;4.50;2.80;;;;;;;;;;5074196;28;20449;-72
2021/12/04 03:13:12;;;;;;;2.73;2.37;;;;;;;;;;5073118;28;20531;-71
2021/12/04 03:15:43;;;;;;;3.60;2.57;;;;;;;;;;5073916;28;20449;-71
2021/12/04 03:18:10;;;;;;;4.60;2.73;;;;;;;;;;5073048;28;20535;-71
2021/12/04 03:20:42;;;;;;;3.03;2.80;;;;;;;;;;5073928;28;20942;-71
2021/12/04 03:23:15;;;;;;;4.00;2.40;;;;;;;;;;5072828;28;20531;-71
2021/12/04 03:25:44;;;;;;;3.33;2.80;;;;;;;;;;5074210;28;21127;-70
2021/12/04 03:28:15;;;;;;;3.40;3.00;;;;;;;;;;5073295;28;20536;-71
2021/12/04 03:30:46;;;;;;;4.30;3.20;;;;;;;;;;5073961;28;20917;-70
2021/12/04 03:41:28;;;;;;;4.63;3.00;;;;;;;;;;5073406;28;20916;-69
2021/12/04 03:43:56;;;;;;;4.50;4.10;;;;;;;;;;5072120;28;20485;-69
2021/12/04 03:46:24;;;;;;;3.50;3.20;;;;;;;;;;5065208;28;20450;-70
2021/12/04 03:48:52;;;;;;;5.33;3.33;;;;;;;;;;5053112;28;20466;-69
2021/12/04 03:51:20;;;;;;;3.80;3.10;;;;;;;;;;5053427;28;20503;-69
2021/12/04 03:53:48;;;;;;;3.50;2.87;;;;;;;;;;5052974;28;20456;-69
2021/12/04 03:56:19;;;;;;;3.33;2.80;;;;;;;;;;5052337;28;20442;-69
2021/12/04 03:58:46;;;;;;;4.33;3.17;;;;;;;;;;5053265;28;20446;-69
2021/12/04 04:01:15;;;;;;;3.53;3.20;;;;;;;;;;5052209;28;20438;-69
2021/12/04 04:03:42;;;;;;;4.70;3.60;;;;;;;;;;5052723;28;20538;-69
2021/12/04 04:06:09;;;;;;;4.30;3.20;;;;;;;;;;5052480;28;20749;-69
2021/12/04 04:08:36;;;;;;;5.27;2.90;;;;;;;;;;5052024;28;20450;-68
2021/12/04 04:11:04;;;;;;;5.63;3.60;;;;;;;;;;5052231;28;20457;-68
2021/12/04 04:13:31;;;;;;;5.17;3.10;;;;;;;;;;5051876;28;20997;-69
2021/12/04 04:16:00;;;;;;;4.50;3.13;;;;;;;;;;5051963;28;21006;-68
2021/12/04 04:18:31;;;;;;;3.83;2.83;;;;;;;;;;5052051;28;20535;-69
2021/12/04 04:20:58;;;;;;;3.20;2.63;;;;;;;;;;5051940;28;20451;-68
2021/12/04 04:23:25;;;;;;;4.83;3.03;;;;;;;;;;5051972;28;20458;-69
2021/12/04 04:25:52;;;;;;;6.00;3.17;;;;;;;;;;5052092;28;20457;-69
2021/12/04 04:28:20;;;;;;;2.30;2.10;;;;;;;;;;5052215;28;20480;-69
2021/12/04 04:30:47;;;;;;;3.80;2.57;;;;;;;;;;5052320;28;20459;-69
2021/12/04 04:33:14;;;;;;;3.80;2.00;;;;;;;;;;5051014;28;20442;-69
2021/12/04 04:35:45;;;;;;;2.20;1.90;;;;;;;;;;5052312;28;20537;-70
2021/12/04 04:38:24;;;;;;;2.90;1.80;;;;;;;;;;5058370;28;20469;-69
2021/12/04 04:57:38;;;;;;;3.00;2.33;;;4.90;99.90;;;;;;5072177;28;20538;-70
2021/12/04 05:11:16;;;;;;;4.20;3.80;;;4.90;99.90;;;;;;5026943;28;20442;-70
2021/12/04 05:13:43;;;;;;;8.67;3.93;;;5.00;99.90;;;;;;5071916;28;20478;-70
2021/12/04 05:16:15;;;;;;;4.10;3.50;;;5.00;99.90;;;;;;5071655;28;20477;-70
2021/12/04 05:18:50;;;;;;;5.60;4.33;;;5.00;99.90;;;;;;5058295;28;20505;-70
2021/12/04 05:21:18;;;;;;;4.97;4.13;;;4.90;99.90;;;;;;5071932;28;20859;-70
2021/12/04 05:23:48;;;;;;;4.70;3.70;;;5.00;99.90;;;;;;5071369;28;20446;-70
2021/12/04 05:26:18;;;;;;;5.23;3.87;;;5.10;99.90;;;;;;5071076;28;20452;-70
2021/12/04 05:28:46;;;;;;;5.73;3.83;;;5.20;99.90;;;;;;5071659;28;20455;-70
2021/12/04 05:31:13;;;;;;;3.57;2.80;;;5.20;99.90;;;;;;5070943;28;20453;-70
2021/12/04 05:33:40;;;;;;;5.07;3.33;;;5.00;99.90;;;;;;5070691;28;20446;-69
2021/12/04 05:36:08;;;;;;;4.33;2.80;;;4.90;99.90;;;;;;5070643;28;20521;-69
2021/12/04 05:38:36;;;;;;;4.43;3.30;;;4.90;99.90;;;;;;5071146;28;20487;-69
2021/12/04 05:41:05;;;;;;;3.97;2.67;;;5.00;99.90;;;;;;5070738;28;21099;-69
2021/12/04 05:43:33;;;;;;;3.50;2.60;;;5.00;99.90;;;;;;5070798;28;20483;-70
2021/12/04 05:46:04;;;;;;;3.90;2.77;;;5.00;99.90;;;;;;5065972;28;20946;-69
2021/12/04 05:48:39;;;;;;;5.27;2.57;;;5.00;99.90;;;;;;5051492;28;20529;-69
2021/12/04 05:54:04;;;;;;;2.90;2.57;;;5.10;99.90;;;;;;5050453;28;20435;-68
2021/12/04 05:56:34;;;;;;;3.63;2.60;;;5.30;99.90;;;;;;5051325;28;20442;-69
2021/12/04 05:59:02;;;;;;;3.20;2.33;;;5.30;99.90;;;;;;5050376;28;20470;-69
2021/12/04 06:01:31;;;;;;;3.73;2.77;;;5.30;99.90;;;;;;5051336;28;20530;-69
2021/12/04 06:04:00;;;;;;;2.10;1.90;;;5.30;99.90;;;;;;5050157;28;20802;-70
2021/12/04 06:06:27;;;;;;;4.77;2.73;;;5.40;99.90;;;;;;5050962;28;20481;-69
2021/12/04 06:08:54;;;;;;;3.47;2.47;;;5.30;99.90;;;;;;5050277;28;20938;-69
2021/12/04 06:11:21;;;;;;;3.13;2.77;;;5.30;99.90;;;;;;5056463;28;20461;-71
2021/12/04 06:13:49;;;;;;;4.23;2.90;;;5.40;99.90;;;;;;5053200;28;20545;-71
2021/12/04 06:16:17;;;;;;;3.10;2.80;;;5.40;99.90;;;;;;5055485;28;20457;-69
2021/12/04 06:18:46;;;;;;;3.53;2.80;;;5.40;99.90;;;;;;5067724;28;20561;-69
2021/12/04 06:23:58;;;;;;;3.47;2.73;;;5.40;99.90;;;;;;5068762;28;20441;-72
2021/12/04 06:26:25;;;;;;;4.33;2.70;;;5.40;99.90;;;;;;5067166;28;20445;-72
2021/12/04 06:28:53;;;;;;;4.30;3.33;;;5.20;99.90;;;;;;5061189;28;20824;-73
2021/12/04 06:31:20;;;;;;;3.60;2.23;;;5.20;99.90;;;;;;5053129;28;20549;-74
2021/12/04 06:33:47;;;;;;;2.30;1.83;;;5.30;99.90;;;;;;5058306;28;20442;-72
2021/12/04 06:36:14;;;;;;;5.07;1.80;;;5.20;99.90;;;;;;5070354;28;20449;-74
2021/12/04 06:38:41;;;;;;;1.70;1.43;;;5.30;99.90;;;;;;5066960;28;20564;-74
2021/12/04 06:41:08;;;;;;;2.97;1.70;;;5.40;99.90;;;;;;5057903;28;20454;-74
2021/12/04 06:43:37;;;;;;;1.93;1.20;;;5.40;99.90;;;;;;5073363;28;20473;-73
2021/12/04 06:46:08;;;;;;;1.40;1.27;;;5.40;99.90;;;;;;5068380;28;21024;-73
2021/12/04 06:48:40;;;;;;;0.80;0.60;;;5.40;99.90;;;;;;5056379;28;20971;-73
2021/12/04 06:51:13;;;;;;;1.00;0.70;;;5.40;99.90;;;;;;5073275;28;20864;-71
2021/12/04 06:53:44;;;;;;;0.70;0.50;;;5.50;99.90;;;;;;5072745;28;20462;-72
2021/12/04 06:56:12;;;;;;;1.23;0.60;;;5.50;99.90;;;;;;5073580;28;20806;-72
2021/12/04 06:58:40;;;;;;;1.93;0.97;;;5.60;99.90;;;;;;5071425;28;20558;-72
2021/12/04 07:01:10;;;;;;;3.03;0.80;;;;;;;;;;5053836;28;20525;-71
2021/12/04 07:03:37;;;;;;;0.80;0.57;;;;;;;;;;5054893;28;20480;-72
2021/12/04 07:06:05;;;;;;;1.43;0.87;;;;;;;;;;5053669;28;20438;-72
2021/12/04 07:08:32;;;;;;;0.93;0.70;;;;;;;;;;5058146;28;20446;-72
2021/12/04 07:11:04;;;;;;;1.50;0.70;;;;;;;;;;5053734;28;20458;-72
2021/12/04 07:13:31;;;;;;;1.10;0.60;;;;;;;;;;5068777;28;20456;-72
2021/12/04 07:16:04;;;;;;;0.90;0.60;;;;;;;;;;5055111;28;20540;-72
2021/12/04 07:18:33;;;;;;;0.97;0.60;;;;;;;;;;5071293;28;21029;-71
2021/12/04 07:21:00;;;;;;;1.50;0.83;;;;;;;;;;5068489;28;20481;-72
2021/12/04 07:23:27;;;;;;;0.80;0.60;;;;;;;;;;5072245;28;20441;-71
2021/12/04 07:25:54;;;;;;;1.10;0.83;;;5.60;99.90;;;;;;5060590;28;20452;-70
2021/12/04 07:28:21;;;;;;;1.97;0.80;;;6.00;99.90;;;;;;5062788;28;20515;-73
2021/12/04 07:30:48;;;;;;;0.90;0.53;;;5.90;99.90;;;;;;5073971;28;20472;-71
2021/12/04 07:33:15;;;;;;;0.97;0.60;;;6.00;99.90;;;;;;5065320;28;20496;-71
2021/12/04 07:35:44;;;;;;;1.27;0.87;;;5.90;99.90;;;;;;5061793;28;20454;-73
2021/12/04 07:38:11;;;;;;;0.70;0.60;;;5.90;99.90;;;;;;5053404;28;20830;-71
2021/12/04 07:40:38;;;;;;;1.37;0.73;;;5.90;99.90;;;;;;5068910;28;20448;-71
2021/12/04 07:43:05;;;;;;;1.00;0.50;;;5.90;99.90;;;;;;5061526;28;20572;-71
2021/12/04 07:45:32;;;;;;;1.20;0.70;;;6.00;99.90;;;;;;5079953;28;20453;-73
2021/12/04 07:47:59;;;;;;;0.80;0.60;;;5.90;99.90;;;;;;5073843;28;20497;-72
2021/12/04 07:50:26;;;;;;;0.93;0.80;;;6.00;99.90;;;;;;5073756;28;20462;-71
2021/12/04 07:52:55;;;;;;;0.87;0.50;;;6.00;99.90;;;;;;5055131;28;20794;-71
2021/12/04 07:55:22;;;;;;;0.70;0.53;;;6.00;99.90;;;;;;5073974;28;20449;-71
2021/12/04 07:57:49;;;;;;;1.00;0.73;;;6.10;99.90;;;;;;5068055;28;20477;-71
2021/12/04 08:00:18;;;;;;;0.70;0.50;;;6.00;99.90;;;;;;5057999;28;20443;-69
2021/12/04 08:02:45;;;;;;;0.90;0.70;;;5.90;99.90;;;;;;5061347;28;20441;-69
2021/12/04 08:05:13;;;;;;;2.03;0.70;;;6.00;99.90;;;;;;5053837;28;21195;-69
2021/12/04 08:07:40;;;;;;;0.70;0.60;;;6.00;99.90;;;;;;5059026;28;20961;-69
2021/12/04 08:10:12;;;;;;;1.20;0.83;;;6.00;99.90;;;;;;5052392;28;20532;-72
2021/12/04 08:12:39;;;;;;;0.80;0.60;;;6.00;99.90;;;;;;5066426;28;20464;-69
2021/12/04 08:15:07;;;;;;;1.07;0.80;;;6.10;99.90;;;;;;5061951;28;20453;-68
2021/12/04 08:17:35;;;;;;;1.20;0.90;;;6.10;99.90;;;;;;5072667;28;20456;-68
2021/12/04 08:20:04;;;;;;;1.23;0.80;;;6.20;99.90;;;;;;5059610;28;20446;-68
2021/12/04 08:22:31;;;;;;;1.37;1.03;;;6.20;99.90;;;;;;5057856;28;20469;-69
2021/12/04 08:24:57;;;;;;;1.57;0.87;;;6.30;99.90;;;;;;5067666;28;20478;-69
2021/12/04 08:27:26;;;;;;;0.97;0.80;;;6.30;99.90;;;;;;5052973;28;20447;-69
2021/12/04 08:29:53;;;;;;;1.20;0.60;;;6.30;99.90;;;;;;5055189;28;20824;-68
2021/12/04 08:32:23;;;;;;;1.00;0.80;;;6.30;99.90;;;;;;5070236;28;20472;-69
2021/12/04 08:34:50;;;;;;;1.70;1.23;;;6.40;99.90;;;;;;5062299;28;20455;-70
2021/12/04 08:37:17;;;;;;;1.50;0.90;;;6.40;99.90;;;;;;5062169;28;20828;-70
2021/12/04 08:39:44;;;;;;;2.37;1.10;;;6.40;99.90;;;;;;5054311;28;20902;-70
2021/12/04 08:42:11;;;;;;;1.17;0.93;;;6.50;99.90;;;;;;5051498;28;20442;-70
2021/12/04 08:44:40;;;;;;;1.30;0.80;;;6.40;99.90;;;;;;5066555;28;21055;-70
2021/12/04 08:47:06;;;;;;;1.40;1.00;;;6.50;99.90;;;;;;5056915;28;20534;-70
2021/12/04 08:49:33;;;;;;;1.60;1.20;;;6.60;99.90;;;;;;5052032;28;20468;-70
2021/12/04 08:52:03;;;;;;;1.47;1.37;;;6.60;99.90;;;;;;5051583;28;20537;-70
2021/12/04 08:54:30;;;;;;;1.60;1.17;;;6.60;99.90;;;;;;5055695;28;20454;-70
2021/12/04 08:56:57;;;;;;;1.77;0.90;;;6.70;99.90;;;;;;5051456;28;20843;-70
2021/12/04 08:59:24;;;;;;;2.20;0.80;;;6.80;99.90;;;;;;5051514;28;20482;-70
2021/12/04 09:01:52;;;;;;;2.97;1.00;;;6.80;99.90;;;;;;5064684;28;20536;-70
2021/12/04 09:04:25;;;;;;;1.10;1.00;;;6.90;99.90;;;;;;5061956;28;20474;-71
2021/12/04 09:06:54;;;;;;;0.90;0.73;;;6.90;99.90;;;;;;5052784;28;20450;-70
2021/12/04 09:09:21;;;;;;;1.23;0.83;;;6.90;99.90;;;;;;5059722;28;20533;-70
2021/12/04 09:11:51;;;;;;;1.20;1.10;;;7.00;99.90;;;;;;5066226;28;20552;-70
2021/12/04 09:14:21;;;;;;;1.63;1.53;;;7.10;99.90;;;;;;5060085;28;20541;-70
2021/12/04 09:16:51;;;;;;;2.23;0.80;;;7.30;99.90;;;;;;5065170;28;20951;-71
2021/12/04 09:19:19;;;;;;;3.87;1.47;;;7.20;99.90;;;;;;5069025;28;20516;-70
2021/12/04 09:21:47;;;;;;;2.40;1.20;;;7.30;99.90;;;;;;5053577;28;20772;-70
2021/12/04 09:24:17;;;;;;;2.50;0.80;;;7.30;99.90;;;;;;5070872;28;20458;-70
2021/12/04 09:26:54;;;;;;;1.00;0.77;;;7.40;99.90;;;;;;5059062;28;20549;-70
2021/12/04 09:35:06;;;;;;;1.83;0.97;;;7.40;99.90;;;;;;5037010;28;20520;-70
2021/12/04 09:59:08;;;;;;;1.43;0.90;;;7.40;99.90;;;;;;5052186;28;20436;-70
2021/12/04 10:05:43;;;;;;;1.43;1.03;;;7.80;99.90;;;;;;5060840;28;20500;-71
2021/12/04 10:14:21;;;;;;;1.10;0.80;;;8.10;99.90;;;;;;5041586;28;20514;-70
2021/12/04 10:19:43;;;;;;;1.57;0.97;;;8.30;99.90;;;;;;5059305;28;20505;-72
2021/12/04 10:33:27;;;;;;;1.10;0.97;;;8.80;99.90;;;;;;5058938;28;20441;-70
2021/12/04 10:35:54;;;;;;;2.07;0.87;;;8.80;99.90;;;;;;5077809;28;20459;-69
2021/12/04 10:38:24;;;;;;;0.80;0.80;;;8.80;99.90;;;;;;5065950;28;20512;-70
2021/12/04 10:40:55;;;;;;;2.03;1.20;;;9.00;99.90;;;;;;5058409;28;20828;-71
2021/12/04 10:43:24;;;;;;;1.30;0.90;;;9.10;99.90;;;;;;5060829;28;20482;-73
2021/12/04 10:45:55;;;;;;;2.33;1.10;;;9.00;99.90;;;;;;5064543;28;20859;-73
2021/12/04 10:48:26;;;;;;;1.50;1.20;;;9.20;99.90;;;;;;5056487;28;20451;-72
2021/12/04 10:51:00;;;;;;;1.70;1.07;;;9.20;99.90;;;;;;5068533;28;20941;-70
2021/12/04 10:53:30;;;;;;;2.27;1.10;;;9.20;99.90;;;;;;5057298;28;20577;-72
2021/12/04 10:56:10;;;;;;;2.40;1.50;;;9.40;99.90;;;;;;5065119;28;20474;-73
2021/12/04 10:59:03;;;;;;;1.30;0.77;;;9.40;99.90;;;;;;5059750;28;20530;-73
2021/12/04 11:01:49;;;;;;;0.87;0.70;;;9.50;99.90;;;;;;5069451;28;20529;-73
2021/12/04 11:04:27;;;;;;;1.63;0.80;;;9.50;99.90;;;;;;5056509;28;20449;-72
2021/12/04 11:40:21;;;;;;;1.50;0.90;;;10.00;99.90;;;;;;5047433;28;20457;-73
2021/12/04 11:42:53;;;;;;;2.10;1.23;;;10.00;99.90;;;;;;5070569;28;20465;-72
2021/12/04 11:45:27;;;;;;;1.77;1.00;;;10.00;99.90;;;;;;5073510;28;20438;-73
2021/12/04 11:47:56;;;;;;;2.37;1.50;;;10.00;99.90;;;;;;5063819;28;20453;-72
2021/12/04 11:50:26;;;;;;;3.13;0.97;;;10.00;99.90;;;;;;5063813;28;20548;-72
2021/12/04 11:52:55;;;;;;;2.53;0.97;;;10.00;99.90;;;;;;5071723;28;20464;-71
2021/12/04 11:55:25;;;;;;;1.97;0.90;;;10.00;99.90;;;;;;5061051;28;20450;-71
2021/12/04 11:57:53;;;;;;;2.83;0.80;;;10.10;99.90;;;;;;5053788;28;20531;-68
2021/12/04 12:00:27;;;;;;;2.07;0.97;;;10.10;99.90;;;;;;5053980;28;20496;-71
2021/12/04 12:03:07;;;;;;;1.07;0.90;;;10.10;99.90;;;;;;5063281;28;20442;-72
2021/12/04 12:05:42;;;;;;;1.43;1.33;;;10.20;99.90;;;;;;5068861;28;20492;-73
2021/12/04 12:08:20;;;;;;;1.93;0.90;;;10.20;99.90;;;;;;5071588;28;20437;-72
2021/12/04 12:10:49;;;;;;;1.70;1.27;;;10.30;99.90;;;;;;5052802;28;20529;-73
2021/12/04 12:13:29;;;;;;;2.07;0.93;;;10.20;99.90;;;;;;5064203;28;20457;-72
2021/12/04 12:16:05;;;;;;;1.47;0.60;;;10.40;99.90;;;;;;5061427;28;20525;-72
2021/12/04 12:18:49;;;;;;;1.70;1.00;;;10.30;99.90;;;;;;5068529;28;20524;-71
2021/12/04 12:21:20;;;;;;;2.33;1.00;;;10.30;99.90;;;;;;5070800;28;20441;-72
2021/12/04 12:26:49;;;;;;;1.30;1.03;;;10.30;99.90;;;;;;5067040;28;20442;-73
2021/12/04 12:38:08;;;;;;;1.17;1.00;;;10.30;99.90;;;;;;5057435;28;20429;-73
2021/12/04 12:40:36;;;;;;;1.37;0.90;;;10.30;99.90;;;;;;5059135;28;20569;-73
2021/12/04 12:43:19;;;;;;;0.97;0.53;;;10.30;99.90;;;;;;5060848;28;20568;-72
2021/12/04 12:45:59;;;;;;;1.50;0.83;;;10.30;99.90;;;;;;5071668;28;20453;-73
2021/12/04 12:48:27;;;;;;;2.07;0.70;;;10.30;99.90;;;;;;5067793;28;20453;-73
2021/12/04 12:51:05;;;;;;;1.70;1.60;;;10.20;99.90;;;;;;5070424;28;20506;-73
2021/12/04 12:53:43;;;;;;;1.00;0.90;;;10.30;99.90;;;;;;5068558;28;20441;-73
2021/12/04 12:56:12;;;;;;;1.57;0.70;;;10.30;99.90;;;;;;5056455;28;20520;-73
2021/12/04 12:58:43;;;;;;;2.03;1.20;;;10.20;99.90;;;;;;5067642;28;20485;-72
2021/12/04 13:12:24;;;;;;;1.30;1.00;;;10.20;99.90;;;;;;5062900;28;20464;-74
2021/12/04 13:14:53;;;;;;;2.33;1.20;;;10.10;99.90;;;;;;5052076;28;20461;-76
2021/12/04 13:17:23;;;;;;;2.90;1.23;;;10.10;99.90;;;;;;5054116;28;20489;-74
2021/12/04 13:19:54;;;;;;;1.47;1.00;;;10.10;99.90;;;;;;5070183;28;20546;-74
2021/12/04 13:22:23;;;;;;;1.50;1.00;;;10.10;99.90;;;;;;5073084;28;20447;-74
2021/12/04 13:24:52;;;;;;;1.43;1.03;;;10.10;99.90;;;;;;5055357;28;21005;-70
2021/12/04 13:29:50;;;;;;;1.67;1.00;;;10.10;99.90;;;;;;5071805;28;20438;-75
2021/12/04 13:32:27;;;;;;;0.97;0.70;;;10.10;99.90;;;;;;5058722;28;20522;-73
2021/12/04 13:35:02;;;;;;;1.40;1.03;;;10.20;99.90;;;;;;5070298;28;20480;-76
2021/12/04 13:37:30;;;;;;;2.87;0.80;;;10.20;99.90;;;;;;5071507;28;20462;-75
2021/12/04 13:40:04;;;;;;;2.30;0.93;;;10.00;99.90;;;;;;5068891;28;20894;-76
2021/12/04 13:42:32;;;;;;;1.63;1.10;;;10.10;99.90;;;;;;5065394;28;20493;-72
2021/12/04 13:44:59;;;;;;;3.30;1.50;;;10.20;99.90;;;;;;5070003;28;20957;-76
2021/12/04 13:47:27;;;;;;;2.40;1.77;;;10.10;99.90;;;;;;5054155;28;20446;-76
2021/12/04 13:49:57;;;;;;;3.53;0.80;;;10.10;99.90;;;;;;5061297;28;20533;-74
2021/12/04 13:52:25;;;;;;;1.60;0.93;;;10.10;99.90;;;;;;5070341;28;20510;-75
2021/12/04 13:54:57;;;;;;;1.73;0.90;;;10.00;99.90;;;;;;5060230;28;20446;-72
2021/12/04 13:57:24;;;;;;;1.33;0.90;;;10.00;99.90;;;;;;5066258;28;20445;-76
2021/12/04 13:59:50;;;;;;;1.60;1.00;;;10.00;99.90;;;;;;5059712;28;20585;-75
2021/12/04 14:02:23;;;;;;;1.07;0.87;;;9.90;99.90;;;;;;5054870;28;20484;-76
2021/12/04 14:04:59;;;;;;;1.30;0.80;;;9.80;99.90;;;;;;5058157;28;20528;-74
2021/12/04 14:07:27;;;;;;;1.33;0.87;;;9.60;99.90;;;;;;5058240;28;20488;-73
2021/12/04 14:09:54;;;;;;;1.63;1.03;;;9.60;99.90;;;;;;5070137;28;20475;-72
2021/12/04 14:12:23;;;;;;;2.63;1.13;;;9.60;99.90;;;;;;5070790;28;20481;-73
2021/12/04 14:14:50;;;;;;;1.40;1.07;;;9.50;99.90;;;;;;5066566;28;20459;-73
2021/12/04 14:17:19;;;;;;;1.47;0.90;;;9.40;99.90;;;;;;5049757;28;20819;-73
2021/12/04 14:19:47;;;;;;;1.77;1.23;;;9.40;99.90;;;;;;5066225;28;20572;-74
2021/12/04 14:22:17;;;;;;;1.30;0.97;;;9.40;99.90;;;;;;5049898;28;20462;-72
2021/12/04 14:24:48;;;;;;;1.60;0.90;;;9.40;99.90;;;;;;5050165;28;20504;-73
2021/12/04 14:27:19;;;;;;;1.00;0.90;;;9.40;99.90;;;;;;5050822;28;20541;-73
2021/12/04 14:29:50;;;;;;;1.57;0.80;;;9.40;99.90;;;;;;5066699;28;20548;-73
2021/12/04 14:32:23;;;;;;;0.90;0.70;;;9.40;99.90;;;;;;5047472;28;21049;-74
2021/12/04 14:34:56;;;;;;;2.53;1.20;;;9.40;99.90;;;;;;5065039;28;20453;-73
2021/12/04 14:37:25;;;;;;;2.60;1.30;;;9.40;99.90;;;;;;5067343;28;20441;-72
2021/12/04 14:39:52;;;;;;;2.37;2.10;;;9.40;99.90;;;;;;5063047;28;21338;-71
2021/12/04 14:42:22;;;;;;;3.37;2.07;;;9.40;99.90;;;;;;5063879;28;20549;-71
2021/12/04 14:44:51;;;;;;;3.30;1.30;;;9.40;99.90;;;;;;5063787;28;20479;-72
2021/12/04 14:47:19;;;;;;;3.47;1.20;;;9.40;99.90;;;;;;5048931;28;20537;-70
2021/12/04 14:49:47;;;;;;;1.87;1.20;;;9.40;99.90;;;;;;5057973;28;20531;-72
2021/12/04 14:52:19;;;;;;;2.23;1.33;;;9.40;99.90;;;;;;5065937;28;20494;-72
2021/12/04 14:54:49;;;;;;;2.47;1.30;;;9.40;99.90;;;;;;5071842;28;20444;-72
2021/12/04 14:57:18;;;;;;;1.83;1.40;;;9.40;99.90;;;;;;5069726;28;20528;-72
2021/12/04 14:59:46;;;;;;;1.57;1.03;;;9.30;99.90;;;;;;5069428;28;20491;-72
2021/12/04 15:02:15;;;;;;;1.63;1.10;;;9.30;99.90;;;;;;5056669;28;20444;-72
2021/12/04 15:04:43;;;;;;;1.27;0.90;;;9.40;99.90;;;;;;5071420;28;20452;-71
2021/12/04 15:07:19;;;;;;;3.37;1.27;;;9.30;99.90;;;;;;5067526;28;20479;-73
2021/12/04 15:09:48;;;;;;;1.70;1.33;;;9.30;99.90;;;;;;5071187;28;20569;-70
2021/12/04 15:12:25;;;;;;;2.07;1.30;;;9.40;99.90;;;;;;5054229;28;20863;-71
2021/12/04 15:14:58;;;;;;;1.30;1.17;;;9.30;99.90;;;;;;5068590;28;20449;-69
2021/12/04 15:17:25;;;;;;;1.37;1.20;;;9.30;99.90;;;;;;5064138;28;20464;-70
2021/12/04 15:19:54;;;;;;;2.27;1.40;;;9.20;99.90;;;;;;5065097;28;20486;-73
2021/12/04 15:22:29;;;;;;;1.20;1.07;;;9.20;99.90;;;;;;5064524;28;20445;-73
2021/12/04 15:24:57;;;;;;;2.30;1.83;;;9.20;99.90;;;;;;5066399;28;20468;-73
2021/12/04 15:27:27;;;;;;;1.70;1.47;;;9.10;99.90;;;;;;5055735;28;20847;-72
2021/12/04 15:29:55;;;;;;;1.37;1.27;;;9.10;99.90;;;;;;5061898;28;20853;-72
2021/12/04 15:32:25;;;;;;;2.17;0.90;;;9.10;99.90;;;;;;5070427;28;20445;-72
2021/12/04 15:34:58;;;;;;;2.03;1.40;;;9.20;99.90;;;;;;5070946;28;20456;-72
2021/12/04 15:37:33;;;;;;;1.70;1.27;;;9.20;99.90;;;;;;5060219;28;20455;-72
2021/12/04 15:40:04;;;;;;;2.50;1.80;;;9.20;99.90;;;;;;5057461;28;20472;-72
2021/12/04 15:42:47;;;;;;;4.40;2.30;;;9.20;99.90;;;;;;5069503;28;20453;-72
2021/12/04 15:45:27;;;;;;;3.07;1.63;;;9.20;99.90;;;;;;5069513;28;20442;-74
2021/12/04 15:48:21;;;;;;;3.33;1.87;;;9.30;99.90;;;;;;5061396;28;20996;-73
2021/12/04 15:51:14;;;;;;;1.77;1.40;;;9.30;99.90;;;;;;5068556;28;20942;-73
2021/12/04 15:53:51;;;;;;;2.30;1.27;;;9.30;99.90;;;;;;5066193;28;20449;-73
2021/12/04 15:56:30;;;;;;;2.23;1.40;;;9.20;99.90;;;;;;5062073;28;20438;-73
2021/12/04 15:58:56;;;;;;;2.90;1.60;;;9.30;99.90;;;;;;5064602;28;20436;-76
2021/12/04 16:01:28;;;;;;;2.30;1.60;;;9.30;99.90;;;;;;5060178;28;20568;-75
2021/12/04 16:03:55;;;;;;;1.70;1.47;;;9.30;99.90;;;;;;5068299;28;20591;-72
2021/12/04 16:06:22;;;;;;;2.10;1.30;;;9.30;99.90;;;;;;5077635;28;21013;-73
2021/12/04 16:08:49;;;;;;;2.90;1.73;;;9.20;99.90;;;;;;5058843;28;20455;-73
2021/12/04 16:11:17;;;;;;;2.20;1.47;;;9.20;99.90;;;;;;5063312;28;20447;-73
2021/12/04 16:13:50;;;;;;;2.03;1.40;;;9.20;99.90;;;;;;5067852;28;20484;-73
2021/12/04 16:16:20;;;;;;;7.00;3.10;;;9.20;99.90;;;;;;5064007;28;20798;-72
2021/12/04 16:18:49;;;;;;;1.60;1.10;;;9.30;99.90;;;;;;5066524;28;20444;-73
2021/12/04 16:21:18;;;;;;;1.90;1.23;;;9.30;99.90;;;;;;5063383;28;20481;-73
2021/12/04 16:23:47;;;;;;;1.60;1.23;;;9.40;99.90;;;;;;5060723;28;20526;-73
2021/12/04 16:26:17;;;;;;;1.67;1.40;;;9.40;99.90;;;;;;5065076;28;20845;-71